Aviation Digital Data Service (ADDS)

Output produced by METARs form (1739 UTC 27 May 2017)
found at http://www.aviationweather.gov/adds/metars/
 
FSPP 271700Z 17006KT //// //// 27/25 Q1013
FSIA 271700Z 14010KT 9999 FEW013CB SCT016 28/25 Q1012 NOSIG
TAF FSIA 271702Z 2718/2818 15015KT 9999 SCT016 
     PROB30 
     TEMPO 2718/2724 -SHRA FEW015CB BKN016